createdAt,value
2023-05-08T12:01:37.926Z,361.10
2023-05-08T12:02:36.531Z,321.16
2023-05-08T12:03:36.560Z,296.49
2023-05-08T12:04:36.486Z,279.81
2023-05-08T12:05:36.376Z,270.58
2023-05-08T12:06:36.361Z,266.40
2023-05-08T12:07:36.372Z,268.14
2023-05-08T12:08:36.363Z,267.05
2023-05-08T12:09:36.333Z,271.47
2023-05-08T12:10:36.328Z,273.97
2023-05-08T12:11:36.404Z,275.81
2023-05-08T12:12:36.295Z,277.91
2023-05-08T12:13:36.373Z,275.35
2023-05-08T12:14:36.300Z,276.04
2023-05-08T12:15:36.273Z,281.49
2023-05-08T12:16:36.296Z,286.65
2023-05-08T12:17:36.297Z,289.43
2023-05-08T12:18:37.413Z,293.05
2023-05-08T12:19:36.226Z,297.57
2023-05-08T12:20:36.217Z,297.84
2023-05-08T12:21:36.237Z,301.12
2023-05-08T12:22:36.212Z,303.91
2023-05-08T12:23:36.208Z,306.18
2023-05-08T12:24:36.178Z,311.70
2023-05-08T12:25:36.162Z,314.39
2023-05-08T12:26:36.178Z,316.82
2023-05-08T12:27:36.149Z,321.79
2023-05-08T12:28:36.159Z,327.25
2023-05-08T12:29:36.129Z,329.88
2023-05-08T12:30:36.106Z,337.69
2023-05-08T12:31:36.194Z,340.49
2023-05-08T12:32:36.131Z,345.88
2023-05-08T12:33:36.088Z,345.51
2023-05-08T12:34:36.068Z,350.68
2023-05-08T12:35:36.122Z,354.85
2023-05-08T12:36:36.076Z,356.78
2023-05-08T12:37:36.037Z,361.10
2023-05-08T12:38:36.062Z,365.12
2023-05-08T12:39:36.009Z,367.16
2023-05-08T12:40:36.054Z,369.64
2023-05-08T12:41:36.009Z,375.14
2023-05-08T12:42:35.988Z,380.83
2023-05-08T12:43:35.993Z,384.34
2023-05-08T12:44:35.988Z,392.02
2023-05-08T12:45:35.966Z,395.04
2023-05-08T12:46:35.956Z,400.74
2023-05-08T12:47:36.006Z,406.36
2023-05-08T12:48:35.931Z,409.35
2023-05-08T12:49:35.909Z,412.13
2023-05-08T12:50:35.908Z,409.85
2023-05-08T12:51:35.897Z,413.92
2023-05-08T12:52:35.914Z,414.70
2023-05-08T12:53:35.892Z,421.25
2023-05-08T12:54:35.849Z,423.92
2023-05-08T12:55:35.845Z,429.38
2023-05-08T12:56:35.852Z,434.42
2023-05-08T12:57:35.836Z,441.90
2023-05-08T12:58:35.812Z,446.04
2023-05-08T12:59:35.822Z,446.64
2023-05-08T13:00:35.805Z,449.05
2023-05-08T13:01:35.845Z,453.63
2023-05-08T13:02:39.483Z,457.99
2023-05-08T13:03:36.815Z,464.05
2023-05-08T13:04:35.797Z,467.95
2023-05-08T13:05:35.744Z,466.97
2023-05-08T13:06:35.814Z,471.26
2023-05-08T13:07:35.710Z,474.95
2023-05-08T13:08:35.700Z,480.43
2023-05-08T13:09:35.700Z,482.51
2023-05-08T13:10:35.686Z,485.67
2023-05-08T13:11:35.710Z,484.97
2023-05-08T13:12:35.660Z,488.16
2023-05-08T13:13:35.655Z,494.32
2023-05-08T13:14:35.644Z,495.79
2023-05-08T13:15:35.632Z,497.27
2023-05-08T13:16:36.154Z,505.56
2023-05-08T13:17:35.627Z,504.41
2023-05-08T13:18:35.601Z,499.13
2023-05-08T13:19:35.598Z,500.62
2023-05-08T13:20:35.591Z,487.81
2023-05-08T13:21:35.609Z,486.38
2023-05-08T13:22:35.564Z,487.81
2023-05-08T13:23:35.566Z,492.49
2023-05-08T13:24:35.523Z,495.79
2023-05-08T13:25:35.536Z,495.42
2023-05-08T13:26:35.506Z,484.62
2023-05-08T13:27:35.536Z,490.32
2023-05-08T13:28:35.481Z,498.75
2023-05-08T13:29:35.472Z,500.62
2023-05-08T13:30:35.470Z,493.22
2023-05-08T13:31:35.559Z,483.91
2023-05-08T13:32:35.475Z,473.94
2023-05-08T13:33:35.430Z,474.61
2023-05-08T13:34:39.363Z,481.82
2023-05-08T13:35:36.432Z,484.97
2023-05-08T13:36:35.434Z,488.16
2023-05-08T13:37:35.392Z,492.13
2023-05-08T13:38:35.390Z,490.32
2023-05-08T13:39:35.384Z,492.49
2023-05-08T13:40:35.365Z,503.65
2023-05-08T13:41:35.372Z,509.81
2023-05-08T13:42:35.343Z,517.33
2023-05-08T13:43:35.355Z,521.37
2023-05-08T13:44:35.321Z,528.39
2023-05-08T13:45:35.338Z,535.18
2023-05-08T13:46:35.336Z,540.38
2023-05-08T13:47:35.312Z,542.58
2023-05-08T13:48:35.269Z,540.82
2023-05-08T13:49:35.276Z,542.58
2023-05-08T13:50:35.267Z,543.02
2023-05-08T13:51:35.247Z,539.51
2023-05-08T13:52:35.252Z,544.35
2023-05-08T13:53:35.263Z,547.93
2023-05-08T13:54:35.213Z,553.85
2023-05-08T13:55:35.200Z,560.84
2023-05-08T13:56:35.218Z,563.68
2023-05-08T13:57:35.210Z,564.63
2023-05-08T13:58:35.201Z,569.46
2023-05-08T13:59:35.153Z,579.85
2023-05-08T14:00:35.142Z,584.43
2023-05-08T14:01:35.159Z,582.39
2023-05-08T14:02:35.209Z,586.48
2023-05-08T14:03:35.181Z,593.27
2023-05-08T14:04:35.121Z,592.74
2023-05-08T14:05:35.104Z,595.39
2023-05-08T14:06:35.089Z,592.74
2023-05-08T14:07:35.089Z,590.64
2023-05-08T14:08:35.287Z,591.69
2023-05-08T14:09:36.049Z,593.27
2023-05-08T14:10:35.041Z,592.21
2023-05-08T14:11:35.029Z,596.45
2023-05-08T14:12:35.028Z,596.45
2023-05-08T14:13:35.085Z,601.29
2023-05-08T14:14:35.006Z,605.11
2023-05-08T14:15:37.367Z,606.21
2023-05-08T14:16:35.033Z,608.42
2023-05-08T14:17:35.054Z,611.21
2023-05-08T14:18:34.963Z,608.98
2023-05-08T14:19:34.937Z,599.13
2023-05-08T14:20:34.931Z,595.92
2023-05-08T14:21:34.966Z,586.48
2023-05-08T14:22:34.905Z,591.69
2023-05-08T14:23:34.930Z,592.21
2023-05-08T14:24:34.892Z,593.27
2023-05-08T14:25:34.893Z,598.59
2023-05-08T14:26:34.878Z,596.98
2023-05-08T14:27:34.861Z,600.21
2023-05-08T14:28:34.868Z,602.38
2023-05-08T14:29:34.891Z,605.66
2023-05-08T14:30:34.830Z,603.47
2023-05-08T14:31:34.870Z,611.21
2023-05-08T14:32:34.888Z,611.21
2023-05-08T14:33:34.846Z,619.16
2023-05-08T14:34:34.783Z,618.01
2023-05-08T14:35:34.791Z,619.16
2023-05-08T14:36:34.764Z,607.87
2023-05-08T14:37:34.820Z,601.83
2023-05-08T14:38:34.754Z,605.11
2023-05-08T14:39:34.734Z,612.34
2023-05-08T14:40:34.700Z,614.59
2023-05-08T14:41:34.739Z,622.04
2023-05-08T14:42:34.694Z,624.96
2023-05-08T14:43:34.713Z,622.04
2023-05-08T14:44:34.744Z,622.63
2023-05-08T14:45:34.670Z,622.63
2023-05-08T14:46:34.711Z,623.79
2023-05-08T14:47:34.661Z,626.72
2023-05-08T14:48:34.645Z,623.21
2023-05-08T14:49:38.602Z,622.63
2023-05-08T14:50:34.630Z,627.31
2023-05-08T14:51:34.597Z,620.89
2023-05-08T14:52:34.656Z,624.38
2023-05-08T14:53:34.703Z,621.47
2023-05-08T14:54:34.812Z,627.31
2023-05-08T14:55:34.868Z,627.31
2023-05-08T14:56:46.345Z,630.28
2023-05-08T14:57:35.568Z,636.90
2023-05-08T14:58:34.584Z,637.51
2023-05-08T14:59:34.517Z,637.51
2023-05-08T15:00:34.570Z,628.49
2023-05-08T15:01:34.553Z,629.09
2023-05-08T15:02:34.612Z,619.73
2023-05-08T15:03:34.609Z,616.30
2023-05-08T15:04:34.492Z,615.73
2023-05-08T15:05:34.453Z,610.09
2023-05-08T15:06:34.437Z,614.03
2023-05-08T15:07:34.447Z,614.03
2023-05-08T15:08:34.468Z,611.77
2023-05-08T15:09:34.405Z,615.16
2023-05-08T15:10:34.428Z,614.59
2023-05-08T15:11:34.401Z,610.09
2023-05-08T15:12:34.380Z,612.90
2023-05-08T15:13:34.451Z,614.59
2023-05-08T15:14:34.378Z,616.30
2023-05-08T15:15:34.350Z,614.59
2023-05-08T15:16:34.378Z,608.98
2023-05-08T15:17:34.344Z,606.21
2023-05-08T15:18:34.334Z,598.59
2023-05-08T15:19:34.349Z,598.06
2023-05-08T15:20:35.295Z,593.80
2023-05-08T15:21:35.197Z,586.48
2023-05-08T15:22:35.438Z,588.04
2023-05-08T15:23:35.532Z,592.74
2023-05-08T15:24:35.446Z,588.55
2023-05-08T15:25:35.288Z,590.64
2023-05-08T15:26:34.350Z,590.12
2023-05-08T15:27:35.561Z,593.27
2023-05-08T15:28:34.214Z,595.92
2023-05-08T15:29:34.215Z,593.80
2023-05-08T15:30:34.198Z,594.33
2023-05-08T15:31:34.209Z,598.06
2023-05-08T15:32:34.177Z,601.29
2023-05-08T15:33:34.171Z,593.27
2023-05-08T15:34:34.164Z,596.45
2023-05-08T15:35:34.125Z,599.67
2023-05-08T15:36:34.133Z,604.56
2023-05-08T15:37:34.115Z,608.42
2023-05-08T15:38:34.131Z,605.66
2023-05-08T15:39:34.099Z,599.13
2023-05-08T15:40:34.111Z,592.74
2023-05-08T15:41:34.067Z,595.92
2023-05-08T15:42:34.053Z,599.67
2023-05-08T15:43:34.040Z,595.92
2023-05-08T15:44:53.220Z,596.45
2023-05-08T15:45:35.075Z,601.83
2023-05-08T15:46:34.025Z,598.06
2023-05-08T15:47:34.095Z,593.27
2023-05-08T15:48:34.005Z,588.04
2023-05-08T15:49:34.019Z,587.52
2023-05-08T15:50:33.983Z,585.45
2023-05-08T15:51:33.976Z,583.41
2023-05-08T15:52:33.952Z,580.36
2023-05-08T15:53:33.937Z,579.35
2023-05-08T15:54:33.946Z,572.88
2023-05-08T15:55:33.939Z,564.63
2023-05-08T15:56:33.911Z,566.55
2023-05-08T15:57:33.916Z,572.88
2023-05-08T15:58:33.877Z,572.88
2023-05-08T15:59:33.904Z,571.90
2023-05-08T16:00:44.166Z,564.16
2023-05-08T16:01:34.907Z,560.84
2023-05-08T16:02:33.900Z,552.93
2023-05-08T16:03:33.988Z,560.36
2023-05-08T16:04:33.836Z,564.16
2023-05-08T16:05:33.807Z,574.86
2023-05-08T16:06:33.790Z,581.88
2023-05-08T16:07:33.792Z,587.00
2023-05-08T16:08:33.780Z,594.85
2023-05-08T16:09:33.785Z,598.59
2023-05-08T16:10:33.763Z,602.92
2023-05-08T16:11:33.743Z,604.56
2023-05-08T16:12:33.734Z,608.98
2023-05-08T16:13:33.731Z,607.87
2023-05-08T16:14:33.725Z,616.30
2023-05-08T16:15:33.715Z,611.21
2023-05-08T16:16:33.776Z,612.90
2023-05-08T16:17:33.693Z,613.46
2023-05-08T16:18:33.679Z,619.73
2023-05-08T16:19:34.688Z,619.16
2023-05-08T16:20:35.720Z,626.13
2023-05-08T16:21:33.723Z,630.87
2023-05-08T16:22:33.701Z,634.47
2023-05-08T16:23:33.650Z,643.04
2023-05-08T16:24:33.642Z,646.78
2023-05-08T16:25:33.649Z,649.30
2023-05-08T16:26:33.585Z,638.73
2023-05-08T16:27:33.575Z,642.42
2023-05-08T16:28:33.571Z,645.53
2023-05-08T16:29:33.571Z,643.66
2023-05-08T16:30:33.584Z,632.07
2023-05-08T16:31:33.663Z,629.68
2023-05-08T16:32:33.535Z,617.44
2023-05-08T16:33:33.522Z,613.46
2023-05-08T16:34:33.521Z,618.01
2023-05-08T16:35:33.550Z,616.87
2023-05-08T16:36:33.505Z,614.59
2023-05-08T16:37:33.764Z,611.77
2023-05-08T16:38:33.455Z,612.90
2023-05-08T16:39:33.448Z,614.59
2023-05-08T16:40:33.466Z,618.58
2023-05-08T16:41:33.445Z,619.16
2023-05-08T16:42:33.408Z,623.21
2023-05-08T16:43:33.422Z,620.31
2023-05-08T16:44:33.402Z,619.16
2023-05-08T16:45:33.389Z,621.47
2023-05-08T16:46:33.415Z,616.87
2023-05-08T16:47:33.434Z,610.65
2023-05-08T16:48:33.353Z,610.09
2023-05-08T16:49:33.344Z,611.21
2023-05-08T16:50:33.343Z,615.73
2023-05-08T16:51:33.340Z,616.87
2023-05-08T16:52:33.315Z,619.16
2023-05-08T16:53:33.296Z,626.13
2023-05-08T16:54:33.290Z,626.72
2023-05-08T16:55:33.267Z,622.63
2023-05-08T16:56:33.292Z,614.59
2023-05-08T16:57:33.254Z,614.59
2023-05-08T16:58:33.263Z,605.66
2023-05-08T16:59:33.240Z,608.98
2023-05-08T17:00:33.249Z,600.21
2023-05-08T17:01:33.249Z,603.47
2023-05-08T17:02:33.336Z,606.21
2023-05-08T17:03:33.337Z,607.32
2023-05-08T17:04:33.184Z,615.73
2023-05-08T17:05:33.173Z,624.38
2023-05-08T17:06:33.185Z,627.31
2023-05-08T17:07:33.160Z,621.47
2023-05-08T17:08:33.224Z,613.46
2023-05-08T17:09:34.470Z,607.87
2023-05-08T17:10:33.122Z,607.87
2023-05-08T17:11:33.129Z,611.21
2023-05-08T17:12:33.095Z,611.21
2023-05-08T17:13:33.127Z,610.09
2023-05-08T17:14:33.087Z,610.65
2023-05-08T17:15:33.053Z,620.31
2023-05-08T17:16:33.130Z,627.31
2023-05-08T17:17:33.088Z,629.09
2023-05-08T17:18:33.028Z,632.07
2023-05-08T17:19:33.014Z,632.67
2023-05-08T17:20:33.004Z,634.47
2023-05-08T17:21:33.021Z,644.28
2023-05-08T17:22:32.980Z,638.73
2023-05-08T17:23:32.976Z,648.04
2023-05-08T17:24:32.985Z,647.41
2023-05-08T17:25:32.951Z,648.04
2023-05-08T17:26:32.970Z,647.41
2023-05-08T17:27:32.934Z,645.53
2023-05-08T17:28:32.918Z,646.16
2023-05-08T17:29:33.064Z,651.20
2023-05-08T17:30:32.894Z,650.57
2023-05-08T17:31:34.131Z,653.12
2023-05-08T17:32:32.919Z,651.84
2023-05-08T17:33:34.693Z,645.53
2023-05-08T17:34:35.023Z,649.93
2023-05-08T17:35:34.074Z,645.53
2023-05-08T17:36:32.874Z,644.91
2023-05-08T17:37:32.862Z,638.73
2023-05-08T17:38:32.809Z,643.66
2023-05-08T17:39:32.835Z,644.28
2023-05-08T17:40:32.869Z,648.04
2023-05-08T17:41:32.821Z,651.20
2023-05-08T17:42:32.801Z,643.04
2023-05-08T17:43:32.893Z,647.41
2023-05-08T17:44:32.894Z,645.53
2023-05-08T17:45:32.800Z,648.04
2023-05-08T17:46:32.730Z,643.66
2023-05-08T17:47:32.786Z,646.78
2023-05-08T17:48:32.697Z,645.53
2023-05-08T17:49:32.706Z,651.84
2023-05-08T17:50:32.720Z,650.57
2023-05-08T17:51:32.671Z,653.12
2023-05-08T17:52:32.668Z,653.12
2023-05-08T17:53:32.727Z,648.04
2023-05-08T17:54:32.646Z,648.67
2023-05-08T17:55:32.626Z,650.57
2023-05-08T17:56:32.641Z,648.04
2023-05-08T17:57:32.639Z,651.84
2023-05-08T17:58:32.598Z,655.69
2023-05-08T17:59:32.625Z,653.12
2023-05-08T18:00:32.589Z,655.69
2023-05-08T18:01:32.613Z,648.67
2023-05-08T18:02:32.669Z,646.78
2023-05-08T18:03:32.558Z,645.53
2023-05-08T18:04:32.533Z,646.78
2023-05-08T18:05:32.564Z,651.84
2023-05-08T18:06:32.534Z,648.04
2023-05-08T18:07:32.501Z,643.66
2023-05-08T18:08:32.526Z,647.41
2023-05-08T18:09:35.057Z,644.28
2023-05-08T18:10:32.480Z,647.41
2023-05-08T18:11:32.466Z,648.04
2023-05-08T18:12:32.510Z,645.53
2023-05-08T18:13:32.445Z,639.96
2023-05-08T18:14:32.435Z,644.91
2023-05-08T18:15:32.408Z,640.57
2023-05-08T18:16:32.469Z,644.91
2023-05-08T18:17:32.454Z,645.53
2023-05-08T18:18:32.375Z,650.57
2023-05-08T18:19:32.401Z,643.66
2023-05-08T18:20:32.895Z,638.12
2023-05-08T18:21:32.345Z,638.12
2023-05-08T18:22:32.393Z,634.47
2023-05-08T18:23:32.324Z,634.47
2023-05-08T18:24:32.315Z,638.73
2023-05-08T18:25:32.309Z,635.68
2023-05-08T18:26:32.366Z,633.27
2023-05-08T18:27:32.317Z,637.51
2023-05-08T18:28:32.339Z,636.90
2023-05-08T18:29:32.294Z,634.47
2023-05-08T18:30:32.266Z,635.08
2023-05-08T18:31:32.352Z,636.90
2023-05-08T18:32:32.279Z,639.34
2023-05-08T18:33:32.317Z,636.90
2023-05-08T18:34:32.253Z,637.51
2023-05-08T18:35:32.215Z,640.57
2023-05-08T18:36:32.187Z,637.51
2023-05-08T18:37:32.209Z,639.34
2023-05-08T18:38:32.218Z,633.27
2023-05-08T18:39:32.163Z,634.47
2023-05-08T18:40:32.175Z,625.55
2023-05-08T18:41:32.225Z,625.55
2023-05-08T18:42:32.138Z,630.87
2023-05-08T18:43:32.134Z,629.68
2023-05-08T18:44:32.159Z,631.47
2023-05-08T18:45:32.092Z,627.31
2023-05-08T18:46:32.148Z,626.13
2023-05-08T18:47:32.158Z,632.07
2023-05-08T18:48:32.069Z,626.13
2023-05-08T18:49:32.059Z,622.04
2023-05-08T18:50:32.068Z,623.79
2023-05-08T18:51:32.040Z,621.47
2023-05-08T18:52:32.051Z,623.21
2023-05-08T18:53:33.056Z,622.04
2023-05-08T18:54:32.084Z,620.31
2023-05-08T18:55:32.014Z,612.90
2023-05-08T18:56:31.981Z,616.87
2023-05-08T18:57:31.988Z,612.34
2023-05-08T18:58:31.971Z,616.87
2023-05-08T18:59:31.950Z,615.73
2023-05-08T19:00:32.016Z,614.59
2023-05-08T19:01:31.921Z,616.87
2023-05-08T19:02:31.997Z,615.73
2023-05-08T19:03:32.030Z,619.73
2023-05-08T19:04:31.903Z,620.89
2023-05-08T19:05:31.884Z,623.79
2023-05-08T19:06:31.895Z,619.16
2023-05-08T19:07:31.961Z,618.58
2023-05-08T19:08:31.886Z,620.89
2023-05-08T19:09:31.918Z,612.90
2023-05-08T19:10:31.825Z,614.59
2023-05-08T19:11:31.824Z,614.59
2023-05-08T19:12:31.810Z,623.79
2023-05-08T19:13:31.857Z,619.73
2023-05-08T19:14:31.786Z,616.30
2023-05-08T19:15:31.776Z,620.31
2023-05-08T19:16:31.847Z,614.03
2023-05-08T19:17:31.761Z,618.01
2023-05-08T19:18:31.745Z,618.01
2023-05-08T19:19:31.771Z,615.16
2023-05-08T19:20:31.720Z,615.73
2023-05-08T19:21:31.739Z,616.30
2023-05-08T19:22:32.837Z,615.16
2023-05-08T19:23:31.708Z,608.42
2023-05-08T19:24:31.681Z,606.76
2023-05-08T19:25:31.697Z,607.87
2023-05-08T19:26:31.654Z,604.56
2023-05-08T19:27:31.637Z,599.67
2023-05-08T19:28:31.658Z,604.02
2023-05-08T19:29:33.617Z,599.13
2023-05-08T19:30:31.613Z,602.38
2023-05-08T19:31:31.698Z,601.83
2023-05-08T19:32:31.584Z,600.75
2023-05-08T19:33:31.585Z,598.06
2023-05-08T19:34:31.631Z,604.56
2023-05-08T19:35:31.608Z,602.38
2023-05-08T19:36:31.552Z,605.11
2023-05-08T19:37:31.533Z,601.83
2023-05-08T19:38:31.538Z,599.67
2023-05-08T19:39:31.544Z,600.21
2023-05-08T19:40:31.856Z,600.21
2023-05-08T19:41:31.529Z,598.59
2023-05-08T19:42:31.497Z,598.59
2023-05-08T19:43:31.480Z,599.13
2023-05-08T19:44:31.490Z,599.67
2023-05-08T19:45:31.474Z,596.98
2023-05-08T19:46:31.467Z,592.74
2023-05-08T19:47:31.441Z,592.21
2023-05-08T19:48:31.434Z,593.80
2023-05-08T19:49:31.439Z,590.12
2023-05-08T19:50:31.394Z,588.55
2023-05-08T19:51:31.402Z,590.12
2023-05-08T19:52:31.370Z,587.52
2023-05-08T19:53:31.377Z,585.45
2023-05-08T19:54:31.388Z,584.43
2023-05-08T19:55:31.366Z,584.94
2023-05-08T19:56:31.339Z,579.35
2023-05-08T19:57:31.330Z,582.90
2023-05-08T19:58:31.329Z,581.37
2023-05-08T19:59:31.330Z,578.85
2023-05-08T20:00:31.310Z,577.34
2023-05-08T20:01:31.364Z,576.84
2023-05-08T20:02:31.320Z,576.35
2023-05-08T20:03:31.380Z,570.43
2023-05-08T20:04:32.358Z,569.94
2023-05-08T20:05:31.295Z,566.55
2023-05-08T20:06:31.221Z,567.03
2023-05-08T20:07:31.239Z,565.59
2023-05-08T20:08:31.202Z,566.55
2023-05-08T20:09:31.185Z,564.63
2023-05-08T20:10:31.246Z,565.59
2023-05-08T20:11:31.197Z,561.31
2023-05-08T20:12:31.203Z,562.73
2023-05-08T20:13:31.147Z,559.89
2023-05-08T20:14:31.171Z,558.02
2023-05-08T20:15:31.138Z,556.16
2023-05-08T20:16:31.153Z,556.16
2023-05-08T20:17:31.158Z,554.31
2023-05-08T20:18:31.234Z,553.39
2023-05-08T20:19:31.101Z,548.38
2023-05-08T20:20:31.077Z,549.74
2023-05-08T20:21:31.085Z,544.35
2023-05-08T20:22:31.112Z,547.48
2023-05-08T20:23:31.046Z,541.26
2023-05-08T20:24:31.092Z,536.90
2023-05-08T20:25:31.044Z,536.90
2023-05-08T20:26:31.013Z,531.76
2023-05-08T20:27:31.034Z,533.89
2023-05-08T20:28:31.020Z,530.49
2023-05-08T20:29:30.989Z,529.23
2023-05-08T20:30:30.993Z,523.83
2023-05-08T20:31:31.018Z,526.31
2023-05-08T20:32:31.019Z,523.83
2023-05-08T20:33:30.921Z,522.19
2023-05-08T20:34:30.930Z,516.92
2023-05-08T20:35:30.994Z,516.52
2023-05-08T20:36:30.904Z,509.42
2023-05-08T20:37:30.880Z,508.26
2023-05-08T20:38:30.881Z,507.10
2023-05-08T20:39:30.857Z,507.48
2023-05-08T20:40:30.877Z,502.51
2023-05-08T20:41:30.904Z,499.87
2023-05-08T20:42:30.832Z,494.32
2023-05-08T20:43:30.813Z,493.22
2023-05-08T20:44:30.830Z,491.40
2023-05-08T20:45:30.871Z,487.10
2023-05-08T20:46:30.787Z,485.67
2023-05-08T20:47:30.832Z,481.12
2023-05-08T20:48:30.775Z,481.12
2023-05-08T20:49:30.758Z,476.99
2023-05-08T20:50:30.782Z,473.60
2023-05-08T20:51:30.744Z,471.93
2023-05-08T20:52:30.735Z,469.27
2023-05-08T20:53:30.727Z,463.72
2023-05-08T20:54:30.701Z,463.08
2023-05-08T20:55:30.720Z,465.34
2023-05-08T20:56:30.694Z,459.57
2023-05-08T20:57:30.675Z,458.62
2023-05-08T20:58:30.652Z,453.94
2023-05-08T20:59:30.632Z,452.09
2023-05-08T21:00:30.674Z,448.14
2023-05-08T21:01:30.680Z,451.17
2023-05-08T21:02:30.661Z,449.05
2023-05-08T21:03:30.645Z,446.04
2023-05-08T21:04:30.620Z,440.73
2023-05-08T21:05:30.576Z,445.15
2023-05-08T21:06:30.604Z,444.55
2023-05-08T21:07:30.560Z,440.73
2023-05-08T21:08:30.546Z,441.90
2023-05-08T21:09:30.613Z,441.03
2023-05-08T21:10:30.529Z,437.84
2023-05-08T21:11:30.529Z,435.84
2023-05-08T21:12:30.539Z,433.85
2023-05-08T21:13:30.500Z,433.85
2023-05-08T21:14:30.485Z,433.01
2023-05-08T21:15:30.515Z,431.89
2023-05-08T21:16:30.495Z,436.12
2023-05-08T21:17:30.506Z,431.61
2023-05-08T21:18:30.457Z,430.21
2023-05-08T21:19:30.442Z,430.21
2023-05-08T21:20:30.427Z,429.66
2023-05-08T21:21:30.433Z,427.18
2023-05-08T21:22:30.421Z,427.46
2023-05-08T21:23:30.404Z,427.73
2023-05-08T21:24:30.386Z,426.36
2023-05-08T21:25:30.379Z,425.55
2023-05-08T21:26:30.370Z,423.92
2023-05-08T21:27:30.355Z,422.31
2023-05-08T21:28:30.347Z,422.58
2023-05-08T21:29:30.335Z,418.34
2023-05-08T21:30:30.310Z,421.51
2023-05-08T21:31:30.354Z,419.13
2023-05-08T21:32:30.343Z,414.44
2023-05-08T21:33:30.273Z,416.77
2023-05-08T21:34:30.359Z,414.95
2023-05-08T21:35:30.308Z,412.39
2023-05-08T21:36:30.258Z,411.88
2023-05-08T21:37:30.286Z,409.85
2023-05-08T21:38:30.240Z,408.85
2023-05-08T21:39:30.210Z,408.60
2023-05-08T21:40:30.269Z,406.11
2023-05-08T21:41:30.252Z,406.36
2023-05-08T21:42:30.187Z,404.88
2023-05-08T21:43:30.188Z,409.85
2023-05-08T21:44:30.169Z,405.86
2023-05-08T21:45:30.164Z,404.39
2023-05-08T21:46:30.238Z,404.63
2023-05-08T21:47:30.135Z,403.41
2023-05-08T21:48:30.119Z,401.71
2023-05-08T21:49:30.123Z,402.68
2023-05-08T21:50:30.106Z,400.74
2023-05-08T21:51:30.102Z,401.46
2023-05-08T21:52:30.095Z,402.68
2023-05-08T21:53:30.071Z,400.50
2023-05-08T21:54:30.055Z,399.06
2023-05-08T21:55:32.153Z,400.26
2023-05-08T21:56:30.056Z,401.46
2023-05-08T21:57:30.035Z,402.19
2023-05-08T21:58:30.019Z,401.95
2023-05-08T21:59:30.018Z,402.92
2023-05-08T22:00:30.003Z,403.41
2023-05-08T22:01:30.055Z,401.71
2023-05-08T22:02:30.037Z,401.95
2023-05-08T22:03:30.063Z,401.95
2023-05-08T22:04:29.944Z,400.50
2023-05-08T22:05:30.038Z,400.50
2023-05-08T22:06:29.943Z,399.78
2023-05-08T22:07:29.911Z,399.06
2023-05-08T22:08:29.920Z,396.45
2023-05-08T22:09:29.919Z,395.98
2023-05-08T22:10:29.883Z,395.28
2023-05-08T22:11:29.918Z,395.98
2023-05-08T22:12:29.861Z,394.58
2023-05-08T22:13:29.852Z,394.11
2023-05-08T22:14:29.865Z,393.18
2023-05-08T22:15:30.886Z,391.79
2023-05-08T22:16:29.879Z,391.79
2023-05-08T22:17:29.945Z,393.41
2023-05-08T22:18:29.827Z,390.19
2023-05-08T22:19:29.788Z,389.96
2023-05-08T22:20:29.799Z,389.73
2023-05-08T22:21:29.788Z,389.05
2023-05-08T22:22:29.748Z,387.92
2023-05-08T22:23:29.766Z,387.24
2023-05-08T22:24:29.732Z,386.35
2023-05-08T22:25:29.729Z,386.57
2023-05-08T22:26:29.751Z,384.34
2023-05-08T22:27:29.720Z,383.46
2023-05-08T22:28:29.684Z,383.46
2023-05-08T22:29:29.672Z,381.70
2023-05-08T22:30:29.686Z,381.27
2023-05-08T22:31:29.715Z,380.61
2023-05-08T22:32:29.738Z,378.17
2023-05-08T22:33:29.657Z,380.39
2023-05-08T22:34:29.630Z,381.70
2023-05-08T22:35:29.608Z,378.17
2023-05-08T22:36:29.630Z,377.73
2023-05-08T22:37:29.599Z,376.43
2023-05-08T22:38:29.578Z,378.17
2023-05-08T22:39:29.614Z,376.43
2023-05-08T22:40:29.577Z,373.01
2023-05-08T22:41:29.560Z,374.71
2023-05-08T22:42:29.583Z,373.86
2023-05-08T22:43:29.533Z,372.16
2023-05-08T22:44:29.508Z,371.74
2023-05-08T22:45:29.528Z,370.48
2023-05-08T22:46:29.566Z,370.48
2023-05-08T22:47:29.516Z,367.99
2023-05-08T22:48:29.470Z,368.81
2023-05-08T22:49:29.511Z,365.53
2023-05-08T22:50:29.454Z,362.30
2023-05-08T22:51:29.444Z,362.70
2023-05-08T22:52:29.447Z,364.71
2023-05-08T22:53:29.449Z,361.50
2023-05-08T22:54:29.405Z,359.52
2023-05-08T22:55:29.393Z,364.71
2023-05-08T22:56:29.386Z,363.10
2023-05-08T22:57:29.387Z,368.40
2023-05-08T22:58:29.422Z,370.06
2023-05-08T22:59:29.351Z,370.06
2023-05-08T23:00:29.341Z,369.23
2023-05-08T23:01:29.387Z,370.06
2023-05-08T23:02:29.341Z,370.90
2023-05-08T23:03:29.316Z,372.16
2023-05-08T23:04:29.361Z,370.48
2023-05-08T23:05:29.280Z,372.16
2023-05-08T23:06:29.298Z,372.16
2023-05-08T23:07:29.283Z,371.32
2023-05-08T23:08:29.264Z,370.06
2023-05-08T23:09:29.244Z,373.01
2023-05-08T23:10:29.235Z,370.48
2023-05-08T23:11:29.251Z,367.57
2023-05-08T23:12:29.233Z,368.40
2023-05-08T23:13:29.236Z,367.99
2023-05-08T23:14:29.194Z,362.70
2023-05-08T23:15:29.175Z,362.30
2023-05-08T23:16:29.221Z,359.91
2023-05-08T23:17:29.193Z,357.95
2023-05-08T23:18:29.162Z,356.01
2023-05-08T23:19:29.138Z,353.33
2023-05-08T23:20:29.136Z,354.47
2023-05-08T23:21:29.113Z,349.19
2023-05-08T23:22:29.154Z,346.97
2023-05-08T23:23:29.083Z,342.98
2023-05-08T23:24:29.096Z,342.98
2023-05-08T23:25:29.074Z,342.27
2023-05-08T23:26:29.075Z,337.69
2023-05-08T23:27:29.086Z,336.65
2023-05-08T23:28:29.039Z,333.57
2023-05-08T23:29:29.030Z,333.57
2023-05-08T23:30:29.054Z,333.57
2023-05-08T23:31:29.042Z,331.21
2023-05-08T23:32:29.075Z,329.22
2023-05-08T23:33:28.976Z,329.88
2023-05-08T23:34:29.168Z,326.27
2023-05-08T23:35:28.972Z,325.30
2023-05-08T23:36:28.948Z,326.92
2023-05-08T23:37:29.008Z,324.02
2023-05-08T23:38:28.940Z,324.34
2023-05-08T23:39:28.936Z,323.38
2023-05-08T23:40:28.912Z,321.48
2023-05-08T23:41:28.891Z,318.98
2023-05-08T23:42:28.917Z,319.29
2023-05-08T23:43:28.886Z,316.21
2023-05-08T23:44:28.871Z,316.21
2023-05-08T23:45:28.861Z,314.39
2023-05-08T23:46:28.879Z,314.69
2023-05-08T23:47:28.898Z,315.60
2023-05-08T23:48:28.829Z,313.49
2023-05-08T23:49:28.808Z,315.60
2023-05-08T23:50:28.813Z,312.89
2023-05-08T23:51:28.795Z,314.09
2023-05-08T23:52:28.837Z,312.30
2023-05-08T23:53:28.779Z,313.19
2023-05-08T23:54:28.822Z,314.39
2023-05-08T23:55:28.754Z,311.41
2023-05-08T23:56:28.734Z,312.60
2023-05-08T23:57:28.797Z,312.00
2023-05-08T23:58:28.716Z,311.70
2023-05-08T23:59:28.746Z,308.77
